Time;durP1;ratioP1;P1;durP2;ratioP2;P2;SDS_P1;SDS_P2;PMS_P1;PMS_P2;Temp;Humidity;BMP_temperature;BMP_pressure;BME280_temperature;BME280_humidity;BME280_pressure;Samples;Min_cycle;Max_cycle;Signal;HPM_P1;HPM_P2
2023/05/30 00:00:13;;;;;;;12.80;3.13;;;;;;;;;;5082916;28;20050;-79
2023/05/30 00:02:39;;;;;;;13.65;3.58;;;;;;;;;;5084109;28;20098;-79
2023/05/30 00:05:05;;;;;;;12.13;3.53;;;;;;;;;;5074810;28;20105;-79
2023/05/30 00:07:31;;;;;;;12.45;3.03;;;;;;;;;;5066081;28;20040;-79
2023/05/30 00:09:57;;;;;;;9.38;2.85;;;;;;;;;;5066129;28;20143;-79
2023/05/30 00:12:23;;;;;;;20.42;4.00;;;;;;;;;;5062553;28;20047;-79
2023/05/30 00:14:50;;;;;;;13.48;3.40;;;;;;;;;;5064248;28;20048;-80
2023/05/30 00:17:16;;;;;;;8.57;2.75;;;;;;;;;;5061870;28;20054;-80
2023/05/30 00:19:42;;;;;;;15.00;3.97;;;;;;;;;;5062174;28;20645;-79
2023/05/30 00:22:09;;;;;;;14.05;3.65;;;;;;;;;;5064117;28;20135;-79
2023/05/30 00:24:35;;;;;;;15.50;4.00;;;;;;;;;;5066476;28;20035;-80
2023/05/30 00:27:01;;;;;;;20.55;3.50;;;;;;;;;;5065905;28;20102;-79
2023/05/30 00:29:27;;;;;;;12.10;3.85;;;;;;;;;;5065824;28;20084;-79
2023/05/30 00:31:53;;;;;;;16.38;3.72;;;;;;;;;;5065235;28;20500;-80
2023/05/30 00:34:20;;;;;;;13.73;3.28;;;;;;;;;;5067423;28;20067;-79
2023/05/30 00:36:46;;;;;;;13.77;3.58;;;;;;;;;;5063853;28;20043;-79
2023/05/30 00:39:13;;;;;;;14.68;3.38;;;;;;;;;;5064321;28;20085;-80
2023/05/30 00:41:40;;;;;;;14.02;3.63;;;;;;;;;;5065605;28;20672;-80
2023/05/30 00:44:06;;;;;;;14.48;3.42;;;;;;;;;;5065569;28;20464;-80
2023/05/30 00:46:32;;;;;;;8.70;2.75;;;;;;;;;;5066072;28;20569;-80
2023/05/30 00:48:59;;;;;;;9.63;3.38;;;;;;;;;;5065542;28;20048;-79
2023/05/30 00:51:27;;;;;;;12.70;3.33;;;;;;;;;;5060935;28;20044;-79
2023/05/30 00:53:53;;;;;;;15.25;3.88;;;;;;;;;;5065287;28;22306;-79
2023/05/30 00:56:23;;;;;;;13.75;3.15;;;;;;;;;;5060864;28;20170;-79
2023/05/30 00:58:50;;;;;;;15.43;3.72;;;;;;;;;;5042184;28;20910;-79
2023/05/30 01:01:16;;;;;;;12.93;3.58;;;;;;;;;;5045948;28;20381;-79
2023/05/30 01:03:43;;;;;;;13.30;3.47;;;;;;;;;;5064100;28;20400;-79
2023/05/30 01:06:09;;;;;;;10.95;3.72;;;;;;;;;;5063742;28;20634;-79
2023/05/30 01:08:36;;;;;;;11.77;3.20;;;;;;;;;;5062664;28;20040;-78
2023/05/30 01:11:18;;;;;;;9.73;3.15;;;;;;;;;;5058560;28;20044;-78
2023/05/30 01:13:53;;;;;;;14.10;3.45;;;;;;;;;;5058976;28;20040;-79
2023/05/30 01:16:24;;;;;;;17.30;3.83;;;;;;;;;;5059466;28;20050;-79
2023/05/30 01:18:50;;;;;;;12.40;3.58;;;;;;;;;;5061756;28;20038;-78
2023/05/30 01:21:17;;;;;;;21.83;5.35;;;;;;;;;;5064870;28;20134;-79
2023/05/30 01:24:00;;;;;;;15.13;3.88;;;;;;;;;;5061899;28;20047;-78
2023/05/30 01:26:37;;;;;;;14.32;3.45;;;;;;;;;;5056771;28;20052;-78
2023/05/30 01:29:04;;;;;;;13.63;3.70;;;;;;;;;;5059308;28;20500;-79
2023/05/30 01:31:31;;;;;;;14.15;3.90;;;;;;;;;;5060094;28;20058;-79
2023/05/30 01:33:58;;;;;;;16.67;3.70;;;;;;;;;;5054609;28;20459;-80
2023/05/30 01:36:24;;;;;;;17.13;3.70;;;;;;;;;;5043615;28;20055;-80
2023/05/30 01:38:50;;;;;;;11.80;3.58;;;;;;;;;;5063150;28;20098;-79
2023/05/30 01:41:29;;;;;;;15.68;3.72;;;;;;;;;;5056719;28;20784;-78
2023/05/30 01:43:55;;;;;;;16.58;4.03;;;;;;;;;;5061352;28;20043;-80
2023/05/30 01:46:36;;;;;;;16.63;4.70;;;;;;;;;;5057878;28;20040;-79
2023/05/30 01:49:21;;;;;;;13.60;4.68;;;;;;;;;;5063441;28;20538;-78
2023/05/30 01:51:55;;;;;;;15.80;3.90;;;;;;;;;;5061338;28;20052;-78
2023/05/30 01:54:21;;;;;;;17.35;3.72;;;;;;;;;;5063526;28;21966;-78
2023/05/30 01:56:50;;;;;;;18.98;4.32;;;;;;;;;;5074890;28;20048;-78
2023/05/30 01:59:17;;;;;;;19.42;4.68;;;;;;;;;;5072856;27;20145;-79
2023/05/30 02:01:44;;;;;;;14.07;3.88;;;;;;;;;;5075977;28;20075;-79
2023/05/30 02:04:10;;;;;;;11.43;3.30;;;;;;;;;;5062523;28;20052;-80
2023/05/30 02:06:37;;;;;;;12.45;4.10;;;;;;;;;;5043556;28;20047;-80
2023/05/30 02:09:04;;;;;;;17.35;3.80;;;;;;;;;;5062202;28;21731;-79
2023/05/30 02:11:30;;;;;;;17.05;4.00;;;;;;;;;;5060373;28;20449;-79
2023/05/30 02:14:00;;;;;;;20.55;4.22;;;;;;;;;;5062559;28;20059;-79
2023/05/30 02:16:26;;;;;;;16.33;4.45;;;;;;;;;;5062031;28;20757;-80
2023/05/30 02:18:52;;;;;;;16.63;3.85;;;;;;;;;;5061548;28;20459;-79
2023/05/30 02:21:19;;;;;;;22.35;4.60;;;;;;;;;;5053672;28;20067;-79
2023/05/30 02:23:46;;;;;;;12.32;4.00;;;;;;;;;;5060933;28;20048;-78
2023/05/30 02:26:12;;;;;;;20.73;4.38;;;;;;;;;;5063396;28;20044;-79
2023/05/30 02:28:38;;;;;;;19.83;3.72;;;;;;;;;;5059712;28;20135;-79
2023/05/30 02:31:04;;;;;;;18.98;4.38;;;;;;;;;;5058393;28;21656;-79
2023/05/30 02:33:30;;;;;;;14.10;3.78;;;;;;;;;;5058823;28;20069;-78
2023/05/30 02:35:56;;;;;;;14.45;3.67;;;;;;;;;;5043208;28;20058;-79
2023/05/30 02:38:22;;;;;;;12.15;3.40;;;;;;;;;;5061140;28;20032;-79
2023/05/30 02:40:49;;;;;;;13.60;3.80;;;;;;;;;;5058510;28;20048;-79
2023/05/30 02:43:15;;;;;;;13.57;3.72;;;;;;;;;;5057292;28;20055;-78
2023/05/30 02:45:41;;;;;;;18.13;4.45;;;;;;;;;;5059057;28;20561;-79
2023/05/30 02:48:07;;;;;;;12.02;3.97;;;;;;;;;;5058480;28;20040;-79
2023/05/30 02:50:33;;;;;;;13.82;3.88;;;;;;;;;;5059614;28;20048;-78
2023/05/30 02:52:59;;;;;;;15.65;3.22;;;;;;;;;;5059733;28;20716;-79
2023/05/30 02:55:26;;;;;;;15.02;4.13;;;;;;;;;;5059733;28;20050;-79
2023/05/30 02:57:52;;;;;;;15.25;3.70;;;;;;;;;;5060149;28;20078;-79
2023/05/30 03:00:19;;;;;;;20.20;4.32;;;;;;;;;;5055662;28;20771;-78
2023/05/30 03:02:46;;;;;;;17.85;4.35;;;;;;;;;;5060470;28;20122;-79
2023/05/30 03:05:12;;;;;;;19.77;4.35;;;;;;;;;;5058115;28;20125;-78
2023/05/30 03:07:38;;;;;;;14.63;3.75;;;;;;;;;;5061257;28;20052;-78
2023/05/30 03:10:05;;;;;;;17.70;3.58;;;;;;;;;;5061822;28;20048;-78
2023/05/30 03:12:31;;;;;;;17.52;4.13;;;;;;;;;;5040809;28;20900;-79
2023/05/30 03:14:57;;;;;;;18.35;3.65;;;;;;;;;;5062474;28;20048;-79
2023/05/30 03:17:24;;;;;;;18.33;4.03;;;;;;;;;;5059303;28;20082;-79
2023/05/30 03:19:51;;;;;;;15.45;3.63;;;;;;;;;;5058491;28;20052;-79
2023/05/30 03:22:17;;;;;;;14.02;3.88;;;;;;;;;;5054668;28;21624;-79
2023/05/30 03:24:43;;;;;;;11.98;3.33;;;;;;;;;;5038018;28;20430;-78
2023/05/30 03:27:09;;;;;;;20.70;3.60;;;;;;;;;;5044112;28;20149;-79
2023/05/30 03:29:35;;;;;;;12.85;3.20;;;;;;;;;;5059902;28;20453;-78
2023/05/30 03:32:01;;;;;;;16.48;4.05;;;;;;;;;;5056062;28;21576;-78
2023/05/30 03:34:27;;;;;;;13.98;4.15;;;;;;;;;;5060641;28;20113;-79
2023/05/30 03:36:53;;;;;;;16.65;3.78;;;;;;;;;;5057615;28;20040;-79
2023/05/30 03:39:20;;;;;;;12.55;3.70;;;;;;;;;;5054282;28;21415;-81
2023/05/30 03:41:46;;;;;;;23.25;4.30;;;;;;;;;;5059181;28;20567;-79
2023/05/30 03:44:12;;;;;;;16.25;3.95;;;;;;;;;;5050564;28;20044;-80
2023/05/30 03:46:38;;;;;;;13.95;3.80;;;;;;;;;;5069247;28;20070;-78
2023/05/30 03:49:04;;;;;;;14.75;3.30;;;;;;;;;;5074954;28;20047;-78
2023/05/30 03:51:30;;;;;;;11.88;3.70;;;;;;;;;;5074138;28;20542;-79
2023/05/30 03:53:57;;;;;;;10.48;3.05;;;;;;;;;;5062543;28;20044;-79
2023/05/30 03:56:23;;;;;;;11.25;2.78;;;;;;;;;;5059888;28;20070;-78
2023/05/30 03:58:49;;;;;;;11.82;2.92;;;;;;;;;;5057331;28;20055;-79
2023/05/30 04:01:15;;;;;;;14.75;3.60;;;;;;;;;;5059034;28;20202;-78
2023/05/30 04:03:43;;;;;;;15.48;4.25;;;;;;;;;;5054992;28;20529;-79
2023/05/30 04:06:10;;;;;;;20.33;4.00;;;;;;;;;;5053749;28;20074;-78
2023/05/30 04:08:36;;;;;;;14.27;3.92;;;;;;;;;;5049630;28;21336;-77
2023/05/30 04:11:03;;;;;;;18.67;4.00;;;;;;;;;;5072821;28;20052;-79
2023/05/30 04:13:29;;;;;;;18.10;4.55;;;;;;;;;;5055706;28;20330;-79
2023/05/30 04:15:55;;;;;;;19.63;4.00;;;;;;;;;;5054443;28;22323;-79
2023/05/30 04:18:21;;;;;;;14.88;4.30;;;;;;;;;;5055517;28;20040;-78
2023/05/30 04:20:47;;;;;;;16.85;4.20;;;;;;;;;;5056469;28;20048;-79
2023/05/30 04:23:13;;;;;;;15.00;3.70;;;;;;;;;;5055877;28;20120;-78
2023/05/30 04:25:40;;;;;;;17.85;4.35;;;;;;;;;;5052509;28;20040;-79
2023/05/30 04:28:06;;;;;;;12.40;3.92;;;;;;;;;;5067389;28;20048;-80
2023/05/30 04:30:35;;;;;;;13.52;4.10;;;;;;;;;;5039580;28;20071;-79
2023/05/30 04:33:02;;;;;;;14.48;4.50;;;;;;;;;;5054511;28;20659;-79
2023/05/30 04:35:28;;;;;;;15.57;4.57;;;;;;;;;;5057960;28;20119;-79
2023/05/30 04:37:55;;;;;;;18.45;3.83;;;;;;;;;;5057066;28;20043;-80
2023/05/30 04:40:21;;;;;;;14.52;3.60;;;;;;;;;;5043508;28;20109;-80
2023/05/30 04:42:51;;;;;;;23.77;4.38;;;;;;;;;;5058431;28;20048;-79
2023/05/30 04:45:18;;;;;;;14.77;4.50;;;;;;;;;;5060174;28;20048;-79
2023/05/30 04:47:47;;;;;;;13.25;3.55;;;;;;;;;;5057313;28;21693;-80
2023/05/30 04:50:17;;;;;;;14.88;4.28;;;;;;;;;;5055467;28;20071;-78
2023/05/30 04:52:43;;;;;;;15.38;3.55;;;;;;;;;;5066236;28;21003;-80
2023/05/30 04:55:10;;;;;;;9.82;3.00;;;;;;;;;;5053653;28;20156;-79
2023/05/30 04:57:40;;;;;;;12.50;3.92;;;;;;;;;;5051993;28;20059;-79
2023/05/30 05:00:13;;;;;;;11.35;3.15;;;;;;;;;;5054747;28;20187;-79
2023/05/30 05:02:40;;;;;;;16.90;3.50;;;;;;;;;;5058039;28;20055;-80
2023/05/30 05:05:06;;;;;;;9.20;3.22;;;;;;;;;;5051383;28;20090;-79
2023/05/30 05:07:33;;;;;;;13.27;4.03;;;;;;;;;;5059256;28;20136;-80
2023/05/30 05:09:59;;;;;;;8.07;2.97;;;;;;;;;;5062017;28;20055;-80
2023/05/30 05:12:25;;;;;;;12.05;3.35;;;;;;;;;;5059072;28;20442;-80
2023/05/30 05:14:51;;;;;;;10.77;3.17;;;;;;;;;;5060296;28;20112;-79
2023/05/30 05:17:17;;;;;;;10.10;3.13;;;;;;;;;;5063616;28;20101;-79
2023/05/30 05:19:43;;;;;;;11.35;3.35;;;;;;;;;;5061554;28;20052;-80
2023/05/30 05:22:09;;;;;;;10.30;3.22;;;;;;;;;;5062896;28;20050;-79
2023/05/30 05:24:36;;;;;;;9.18;2.55;;;;;;;;;;5063464;28;20040;-79
2023/05/30 05:27:02;;;;;;;11.63;2.85;;;;;;;;;;5062442;28;20048;-81
2023/05/30 05:29:28;;;;;;;14.75;3.50;;;;;;;;;;5065488;28;20044;-80
2023/05/30 05:31:54;;;;;;;11.95;3.10;;;;;;;;;;5066159;28;20662;-80
2023/05/30 05:34:20;;;;;;;13.30;3.83;;;;;;;;;;5042517;28;20118;-79
2023/05/30 05:36:46;;;;;;;7.88;3.30;;;;;;;;;;5062882;28;20484;-80
2023/05/30 05:39:12;;;;;;;9.75;3.08;;;;;;;;;;5056898;28;20163;-80
2023/05/30 05:41:38;;;;;;;8.18;2.67;;;;;;;;;;5058689;28;20125;-81
2023/05/30 05:44:07;;;;;;;11.77;3.00;;;;;;;;;;5062707;28;20044;-81
2023/05/30 05:46:33;;;;;;;12.30;3.38;;;;;;;;;;5061356;28;20471;-81
2023/05/30 05:48:59;;;;;;;10.93;2.88;;;;;;;;;;5077148;28;20036;-80
2023/05/30 05:51:25;;;;;;;10.90;3.45;;;;;;;;;;5060110;28;20634;-80
2023/05/30 05:53:51;;;;;;;12.63;3.17;;;;;;;;;;5057664;28;20518;-81
2023/05/30 05:56:17;;;;;;;11.25;2.83;;;;;;;;;;5038384;28;20056;-81
2023/05/30 05:58:43;;;;;;;11.63;3.22;;;;;;;;;;5059941;28;20048;-83
2023/05/30 06:01:09;;;;;;;8.60;3.17;;;;;;;;;;5058492;28;20052;-81
2023/05/30 06:03:35;;;;;;;11.93;2.60;;;;;;;;;;5060529;28;20039;-83
2023/05/30 06:06:02;;;;;;;12.43;3.03;;;;;;;;;;5057308;28;20171;-82
2023/05/30 06:08:28;;;;;;;13.05;3.00;;;;;;;;;;5054238;28;20043;-81
2023/05/30 06:10:54;;;;;;;7.75;2.30;;;;;;;;;;5057316;28;20048;-82
2023/05/30 06:13:20;;;;;;;5.75;2.55;;;;;;;;;;5054404;28;20036;-82
2023/05/30 06:15:46;;;;;;;13.77;2.63;;;;;;;;;;5070338;28;20049;-83
2023/05/30 06:18:12;;;;;;;9.32;3.13;;;;;;;;;;5068582;28;20055;-82
2023/05/30 06:20:38;;;;;;;9.48;2.63;;;;;;;;;;5056828;28;20880;-82
2023/05/30 06:23:04;;;;;;;13.63;3.47;;;;;;;;;;5061754;28;20040;-81
2023/05/30 06:25:30;;;;;;;8.68;2.83;;;;;;;;;;5045465;28;20522;-83
2023/05/30 06:27:57;;;;;;;9.73;2.85;;;;;;;;;;5060268;28;20036;-83
2023/05/30 06:30:23;;;;;;;9.82;2.95;;;;;;;;;;5039244;28;20109;-83
2023/05/30 06:32:49;;;;;;;7.20;2.25;;;;;;;;;;5059526;28;20503;-82
2023/05/30 06:35:15;;;;;;;9.40;2.90;;;;;;;;;;5058682;28;20123;-82
2023/05/30 06:37:41;;;;;;;5.75;2.47;;;;;;;;;;5059435;28;20040;-83
2023/05/30 06:40:08;;;;;;;9.13;2.97;;;;;;;;;;5061015;28;20070;-82
2023/05/30 06:42:35;;;;;;;11.98;2.72;;;;;;;;;;5058196;28;20604;-82
2023/05/30 06:45:01;;;;;;;5.47;2.25;;;;;;;;;;5038967;28;20396;-83
2023/05/30 06:47:27;;;;;;;6.78;2.15;;;;;;;;;;5057824;28;20075;-82
2023/05/30 06:49:53;;;;;;;6.03;2.25;;;;;;;;;;5054381;28;20137;-82
2023/05/30 06:52:19;;;;;;;6.65;1.88;;;;;;;;;;5056560;28;20090;-82
2023/05/30 06:54:46;;;;;;;4.57;1.83;;;;;;;;;;5070189;27;20046;-82
2023/05/30 06:57:12;;;;;;;4.93;1.63;;;;;;;;;;5055477;28;20583;-81
2023/05/30 06:59:38;;;;;;;7.88;1.55;;;;;;;;;;5056206;28;20142;-84
2023/05/30 07:02:05;;;;;;;3.90;1.40;;;;;;;;;;5058232;28;20040;-81
2023/05/30 07:04:31;;;;;;;4.10;1.30;;;;;;;;;;5058059;28;20131;-83
2023/05/30 07:06:57;;;;;;;10.40;1.77;;;;;;;;;;5054803;28;20051;-80
2023/05/30 07:09:23;;;;;;;5.78;1.42;;;;;;;;;;5056656;28;20074;-81
2023/05/30 07:11:51;;;;;;;4.28;1.30;;;;;;;;;;5054095;28;20039;-81
2023/05/30 07:14:17;;;;;;;1.88;0.90;;;;;;;;;;5059741;28;20672;-81
2023/05/30 07:16:44;;;;;;;3.42;1.10;;;;;;;;;;5063713;28;20055;-82
2023/05/30 07:19:10;;;;;;;1.13;0.73;;;;;;;;;;5061551;28;20470;-81
2023/05/30 07:21:36;;;;;;;1.65;0.80;;;;;;;;;;5055840;28;20032;-81
2023/05/30 07:24:03;;;;;;;0.68;0.40;;;;;;;;;;5059218;28;20117;-77
2023/05/30 07:26:29;;;;;;;3.08;0.70;;;;;;;;;;5048737;28;20131;-80
2023/05/30 07:28:57;;;;;;;1.00;0.60;;;;;;;;;;5062546;28;20044;-80
2023/05/30 07:31:23;;;;;;;1.98;0.70;;;;;;;;;;5063940;28;20051;-79
2023/05/30 07:33:49;;;;;;;2.25;0.80;;;;;;;;;;5082369;28;20048;-79
2023/05/30 07:36:15;;;;;;;1.38;0.75;;;;;;;;;;5084804;28;20075;-79
2023/05/30 07:38:42;;;;;;;2.70;0.90;;;;;;;;;;5080403;28;20039;-79
2023/05/30 07:41:08;;;;;;;2.95;0.80;;;;;;;;;;5075466;28;20127;-79
2023/05/30 07:43:34;;;;;;;2.78;0.73;;;;;;;;;;5068689;28;20048;-79
2023/05/30 07:46:00;;;;;;;3.33;0.60;;;;;;;;;;5063523;28;20155;-79
2023/05/30 07:48:26;;;;;;;2.25;0.80;;;;;;;;;;5061002;28;20198;-78
2023/05/30 07:50:52;;;;;;;0.50;0.50;;;;;;;;;;5060376;28;20109;-79
2023/05/30 07:53:18;;;;;;;1.77;0.63;;;;;;;;;;5064270;28;20047;-79
2023/05/30 07:55:46;;;;;;;0.95;0.50;;;;;;;;;;5055496;28;20040;-78
2023/05/30 07:58:12;;;;;;;1.35;0.65;;;;;;;;;;5063305;28;20149;-79
2023/05/30 08:00:38;;;;;;;1.15;0.60;;;;;;;;;;5064810;28;20051;-79
2023/05/30 08:03:04;;;;;;;1.80;0.63;;;;;;;;;;5058524;28;20044;-80
2023/05/30 08:05:30;;;;;;;1.95;1.02;;;;;;;;;;5065339;28;22254;-78
2023/05/30 08:07:56;;;;;;;1.40;0.52;;;;;;;;;;5060994;28;20052;-79
2023/05/30 08:10:22;;;;;;;2.65;1.02;;;;;;;;;;5062570;28;20039;-79
2023/05/30 08:12:48;;;;;;;1.77;0.60;;;;;;;;;;5059064;28;21388;-79
2023/05/30 08:15:14;;;;;;;2.92;0.85;;;;;;;;;;5057740;28;20036;-79
2023/05/30 08:17:41;;;;;;;1.30;0.60;;;;;;;;;;5063283;28;22320;-78
2023/05/30 08:20:09;;;;;;;0.85;0.70;;;;;;;;;;5062690;28;20488;-79
2023/05/30 08:22:36;;;;;;;2.40;1.45;;;;;;;;;;5062546;28;20450;-79
2023/05/30 08:25:02;;;;;;;2.22;0.70;;;;;;;;;;5061093;28;20156;-80
2023/05/30 08:27:28;;;;;;;1.63;0.60;;;;;;;;;;5056395;28;20080;-79
2023/05/30 08:29:55;;;;;;;1.42;0.70;;;;;;;;;;5054261;28;20074;-80
2023/05/30 08:32:22;;;;;;;1.08;0.80;;;;;;;;;;5063344;28;20068;-79
2023/05/30 08:34:48;;;;;;;2.20;0.85;;;;;;;;;;5045212;28;20196;-79
2023/05/30 08:37:14;;;;;;;1.60;0.80;;;;;;;;;;5062646;28;20185;-80
2023/05/30 08:39:40;;;;;;;0.50;0.50;;;;;;;;;;5061327;28;20427;-78
2023/05/30 08:42:07;;;;;;;4.10;0.90;;;;;;;;;;5065072;28;20086;-79
2023/05/30 08:44:33;;;;;;;2.90;0.80;;;;;;;;;;5064438;28;20377;-79
2023/05/30 08:47:00;;;;;;;2.55;0.60;;;;;;;;;;5063654;28;20048;-79
2023/05/30 08:49:28;;;;;;;1.52;0.90;;;;;;;;;;5042403;28;20035;-81
2023/05/30 08:51:54;;;;;;;4.70;1.08;;;;;;;;;;5062413;28;20475;-80
2023/05/30 08:54:25;;;;;;;3.10;0.90;;;;;;;;;;5062765;28;21657;-80
2023/05/30 08:57:12;;;;;;;4.72;1.45;;;;;;;;;;5064998;28;20384;-79
2023/05/30 08:59:39;;;;;;;5.30;1.20;;;;;;;;;;5063001;28;20487;-81
2023/05/30 09:02:06;;;;;;;5.88;1.83;;;;;;;;;;5064864;28;20260;-79
2023/05/30 09:04:32;;;;;;;4.55;1.33;;;;;;;;;;5081152;28;20051;-79
2023/05/30 09:06:58;;;;;;;3.30;1.10;;;;;;;;;;5050130;28;20112;-80
2023/05/30 09:09:24;;;;;;;6.22;1.38;;;;;;;;;;5046200;28;20048;-80
2023/05/30 09:11:54;;;;;;;5.68;1.30;;;;;;;;;;5065387;28;20548;-79
2023/05/30 09:14:21;;;;;;;3.15;0.90;;;;;;;;;;5073349;28;20048;-80
2023/05/30 09:16:47;;;;;;;2.80;1.38;;;;;;;;;;5057703;28;20127;-80
2023/05/30 09:19:13;;;;;;;2.55;1.10;;;;;;;;;;5060931;28;20064;-79
2023/05/30 09:21:40;;;;;;;1.98;1.25;;;;;;;;;;5057394;28;20787;-80
2023/05/30 09:24:06;;;;;;;3.28;1.10;;;;;;;;;;5061805;28;20080;-81
2023/05/30 09:26:33;;;;;;;1.95;1.08;;;;;;;;;;5055299;28;20044;-80
2023/05/30 09:29:17;;;;;;;1.20;0.75;;;;;;;;;;5059761;28;20050;-80
2023/05/30 09:31:43;;;;;;;1.70;0.63;;;;;;;;;;5047062;28;20134;-79
2023/05/30 09:34:17;;;;;;;0.88;0.80;;;;;;;;;;5061937;28;20037;-78
2023/05/30 09:36:52;;;;;;;1.13;0.70;;;;;;;;;;5076609;27;20591;-78
2023/05/30 09:39:18;;;;;;;1.85;1.00;;;;;;;;;;5037747;28;20115;-79
2023/05/30 09:41:46;;;;;;;4.65;0.80;;;;;;;;;;5046111;28;20043;-78
2023/05/30 09:44:12;;;;;;;2.10;0.98;;;;;;;;;;5064750;28;20531;-80
2023/05/30 09:46:39;;;;;;;2.95;1.20;;;;;;;;;;5061524;28;20653;-80
2023/05/30 09:49:12;;;;;;;1.17;0.77;;;;;;;;;;5060895;28;20492;-79
2023/05/30 09:51:38;;;;;;;2.50;0.98;;;;;;;;;;5067012;28;20045;-78
2023/05/30 09:54:05;;;;;;;1.05;0.73;;;;;;;;;;5066173;28;21703;-81
2023/05/30 09:56:38;;;;;;;0.70;0.60;;;;;;;;;;5075510;27;20511;-79
2023/05/30 09:59:08;;;;;;;0.68;0.68;;;;;;;;;;5058989;28;20414;-79
2023/05/30 10:01:42;;;;;;;1.75;1.00;;;;;;;;;;5072416;28;20081;-79
2023/05/30 10:04:08;;;;;;;;;;;;;;;;;;5057329;28;20058;-80
2023/05/30 10:06:39;;;;;;;2.15;1.00;;;;;;;;;;5058525;28;19924;-77
2023/05/30 10:09:06;;;;;;;3.53;0.93;;;;;;;;;;5056412;28;20131;-78
2023/05/30 10:11:33;;;;;;;0.88;0.70;;;;;;;;;;5062457;28;20420;-81
2023/05/30 10:14:00;;;;;;;1.20;0.98;;;;;;;;;;5065326;28;20120;-80
2023/05/30 10:16:27;;;;;;;1.27;0.90;;;;;;;;;;5062470;28;20503;-81
2023/05/30 10:18:56;;;;;;;5.47;0.90;;;;;;;;;;5062844;28;20048;-76
2023/05/30 10:21:22;;;;;;;4.88;1.02;;;;;;;;;;5062577;28;20621;-81
2023/05/30 10:23:50;;;;;;;1.52;1.00;;;;;;;;;;5074668;27;20074;-78
2023/05/30 10:26:16;;;;;;;4.90;1.20;;;;;;;;;;5064465;28;20108;-80
2023/05/30 10:28:44;;;;;;;1.77;1.00;;;;;;;;;;5062230;28;20044;-79
2023/05/30 10:31:12;;;;;;;1.75;0.95;;;;;;;;;;5059514;28;20040;-79
2023/05/30 10:33:40;;;;;;;2.92;0.85;;;;;;;;;;5062924;28;20500;-78
2023/05/30 10:36:06;;;;;;;0.85;0.80;;;;;;;;;;5060780;28;20036;-77
2023/05/30 10:38:35;;;;;;;1.67;0.65;;;;;;;;;;5055681;28;20040;-77
2023/05/30 10:41:04;;;;;;;2.55;0.85;;;;;;;;;;5058127;28;20043;-78
2023/05/30 10:43:31;;;;;;;0.88;0.68;;;;;;;;;;5058453;28;20178;-78
2023/05/30 10:46:03;;;;;;;1.65;0.70;;;;;;;;;;5058204;28;21222;-77
2023/05/30 10:48:44;;;;;;;1.15;0.70;;;;;;;;;;5061692;28;20454;-78
2023/05/30 10:51:13;;;;;;;1.10;0.60;;;;;;;;;;5061281;28;20052;-78
2023/05/30 10:53:40;;;;;;;0.85;0.68;;;;;;;;;;5063650;28;20052;-78
2023/05/30 10:56:27;;;;;;;2.38;0.82;;;;;;;;;;5060726;28;20040;-79
2023/05/30 10:58:53;;;;;;;0.88;0.80;;;;;;;;;;5059245;28;20570;-78
2023/05/30 11:01:33;;;;;;;1.90;0.73;;;;;;;;;;5020442;28;20086;-78
2023/05/30 11:04:05;;;;;;;2.40;0.70;;;;;;;;;;5055700;28;20495;-79
2023/05/30 11:06:33;;;;;;;0.77;0.77;;;;;;;;;;5040341;28;20178;-78
2023/05/30 11:09:16;;;;;;;0.85;0.80;;;;;;;;;;5062376;28;21743;-78
2023/05/30 11:11:42;;;;;;;1.05;0.68;;;;;;;;;;5060209;28;20089;-77
2023/05/30 11:14:10;;;;;;;1.13;0.63;;;;;;;;;;5060605;28;20090;-77
2023/05/30 11:16:49;;;;;;;0.60;0.60;;;;;;;;;;5081311;28;20403;-77
2023/05/30 11:19:15;;;;;;;0.80;0.70;;;;;;;;;;5074936;28;20091;-77
2023/05/30 11:21:55;;;;;;;4.20;1.15;;;;;;;;;;5051911;28;21371;-76
2023/05/30 11:24:21;;;;;;;1.33;0.80;;;;;;;;;;5064278;28;20131;-77
2023/05/30 11:26:57;;;;;;;0.93;0.60;;;;;;;;;;5062532;28;20484;-77
2023/05/30 11:29:44;;;;;;;2.47;0.90;;;;;;;;;;5062615;28;20155;-76
2023/05/30 11:32:10;;;;;;;3.33;1.00;;;;;;;;;;5060672;28;20089;-76
2023/05/30 11:34:37;;;;;;;1.60;0.93;;;;;;;;;;5061915;28;20048;-78
2023/05/30 11:37:03;;;;;;;1.85;1.05;;;;;;;;;;5060484;28;20052;-78
2023/05/30 11:39:36;;;;;;;3.65;0.80;;;;;;;;;;5061003;28;20141;-76
2023/05/30 11:42:03;;;;;;;1.38;1.17;;;;;;;;;;5062774;28;20044;-77
2023/05/30 11:44:32;;;;;;;2.90;0.90;;;;;;;;;;5061923;28;20044;-77
2023/05/30 11:46:59;;;;;;;2.38;1.27;;;;;;;;;;5042731;28;20747;-79
2023/05/30 11:49:26;;;;;;;1.95;1.38;;;;;;;;;;5065793;28;20043;-78
2023/05/30 11:51:52;;;;;;;3.60;0.90;;;;;;;;;;5058737;28;20397;-77
2023/05/30 11:54:19;;;;;;;1.13;1.00;;;;;;;;;;5057303;28;20500;-77
2023/05/30 11:56:47;;;;;;;1.48;1.08;;;;;;;;;;5056260;28;20044;-79
2023/05/30 11:59:17;;;;;;;1.63;0.93;;;;;;;;;;5075436;28;20074;-79
2023/05/30 12:01:43;;;;;;;1.30;0.80;;;;;;;;;;5057687;28;20044;-78
2023/05/30 12:04:09;;;;;;;1.73;0.90;;;;;;;;;;5054176;28;20110;-78
2023/05/30 12:06:35;;;;;;;1.50;0.90;;;;;;;;;;5058630;28;20054;-79
2023/05/30 12:09:01;;;;;;;2.90;0.63;;;;;;;;;;5061807;28;20536;-78
2023/05/30 12:11:27;;;;;;;1.10;0.60;;;;;;;;;;5063267;28;20504;-78
2023/05/30 12:13:55;;;;;;;0.68;0.60;;;;;;;;;;5066211;28;20039;-79
2023/05/30 12:16:21;;;;;;;1.08;0.55;;;;;;;;;;5072678;28;20131;-78
2023/05/30 12:18:47;;;;;;;0.63;0.52;;;;;;;;;;5064425;28;20040;-79
2023/05/30 12:21:14;;;;;;;0.63;0.60;;;;;;;;;;5063551;28;20063;-79
2023/05/30 12:23:42;;;;;;;1.80;0.45;;;;;;;;;;5066052;28;20282;-78
2023/05/30 12:26:16;;;;;;;0.55;0.52;;;;;;;;;;5064064;28;20450;-78
2023/05/30 12:28:42;;;;;;;;;;;;;;;;;;5063301;28;20048;-79
2023/05/30 12:31:20;;;;;;;3.55;1.27;;;;;;;;;;5058456;28;20276;-79
2023/05/30 12:33:46;;;;;;;1.67;0.70;;;;;;;;;;5062911;28;20046;-79
2023/05/30 12:36:12;;;;;;;0.75;0.70;;;;;;;;;;5064911;28;20222;-79
2023/05/30 12:38:38;;;;;;;0.80;0.65;;;;;;;;;;5060332;28;20040;-79
2023/05/30 12:41:06;;;;;;;2.83;0.93;;;;;;;;;;5059115;28;20766;-80
2023/05/30 12:43:32;;;;;;;1.98;1.00;;;;;;;;;;5056414;28;20083;-80
2023/05/30 12:46:03;;;;;;;2.42;1.10;;;;;;;;;;5061942;28;21961;-79
2023/05/30 12:48:29;;;;;;;1.25;1.02;;;;;;;;;;5075314;28;20044;-79
2023/05/30 12:50:55;;;;;;;1.08;0.70;;;;;;;;;;5062353;28;21714;-78
2023/05/30 12:53:22;;;;;;;0.65;0.65;;;;;;;;;;5060095;28;20036;-77
2023/05/30 12:55:48;;;;;;;1.75;0.93;;;;;;;;;;5059485;28;20036;-79
2023/05/30 12:58:14;;;;;;;2.78;1.40;;;;;;;;;;5019632;28;1190117;-79
2023/05/30 13:00:40;;;;;;;1.02;0.95;;;;;;;;;;5061363;28;20067;-79
2023/05/30 13:03:06;;;;;;;1.88;0.90;;;;;;;;;;5062242;28;20551;-78
2023/05/30 13:05:32;;;;;;;1.65;0.90;;;;;;;;;;5044878;28;20047;-78
2023/05/30 13:07:58;;;;;;;0.70;0.60;;;;;;;;;;5064525;28;20074;-78
2023/05/30 13:10:24;;;;;;;1.27;0.82;;;;;;;;;;5062240;28;20067;-78
2023/05/30 13:12:50;;;;;;;1.85;0.70;;;;;;;;;;5063706;28;20048;-78
2023/05/30 13:15:17;;;;;;;0.73;0.63;;;;;;;;;;5062443;28;20036;-78
2023/05/30 13:17:43;;;;;;;0.68;0.68;;;;;;;;;;5042900;28;20040;-78
2023/05/30 13:20:09;;;;;;;1.17;0.77;;;;;;;;;;5062328;28;20068;-77
2023/05/30 13:22:35;;;;;;;1.15;0.73;;;;;;;;;;5064269;28;20113;-79
2023/05/30 13:25:02;;;;;;;1.45;0.80;;;;;;;;;;5057562;28;20044;-78
2023/05/30 13:27:28;;;;;;;1.00;0.70;;;;;;;;;;5060485;28;20045;-78
2023/05/30 13:29:54;;;;;;;0.85;0.60;;;;;;;;;;5067826;28;20037;-78
2023/05/30 13:32:20;;;;;;;0.60;0.60;;;;;;;;;;5069073;28;20036;-78
2023/05/30 13:34:46;;;;;;;3.95;0.80;;;;;;;;;;5066955;28;20039;-78
2023/05/30 13:37:12;;;;;;;1.75;0.70;;;;;;;;;;5065528;28;20055;-81
2023/05/30 13:39:38;;;;;;;0.70;0.70;;;;;;;;;;5063209;28;20040;-74
2023/05/30 13:42:05;;;;;;;1.77;1.00;;;;;;;;;;5063658;28;20086;-78
2023/05/30 13:44:31;;;;;;;2.65;0.70;;;;;;;;;;5062947;28;20495;-78
2023/05/30 13:46:57;;;;;;;3.72;0.90;;;;;;;;;;5045405;28;20094;-77
2023/05/30 13:49:32;;;;;;;1.30;0.93;;;;;;;;;;5062639;28;20044;-78
2023/05/30 13:51:58;;;;;;;2.72;1.15;;;;;;;;;;5064513;28;20577;-77
2023/05/30 13:54:24;;;;;;;2.40;0.98;;;;;;;;;;5065915;28;20105;-78
2023/05/30 13:56:50;;;;;;;3.35;1.10;;;;;;;;;;5078820;28;21621;-78
2023/05/30 13:59:16;;;;;;;2.15;1.10;;;;;;;;;;5062155;28;20145;-78
2023/05/30 14:01:42;;;;;;;2.10;1.30;;;;;;;;;;5083334;28;20139;-78
2023/05/30 14:04:08;;;;;;;2.65;1.40;;;;;;;;;;5063434;28;20044;-78
2023/05/30 14:06:36;;;;;;;2.28;1.50;;;;;;;;;;5062804;28;20051;-77
2023/05/30 14:09:04;;;;;;;1.30;1.10;;;;;;;;;;5078717;28;20040;-78
2023/05/30 14:11:31;;;;;;;2.78;1.15;;;;;;;;;;5079936;28;20071;-78
2023/05/30 14:13:58;;;;;;;5.75;1.33;;;;;;;;;;5063652;28;21098;-78
2023/05/30 14:16:24;;;;;;;2.58;1.52;;;;;;;;;;5062146;28;20568;-78
2023/05/30 14:18:50;;;;;;;2.67;1.10;;;;;;;;;;5064243;28;20480;-77
2023/05/30 14:21:16;;;;;;;1.15;0.98;;;;;;;;;;5067613;28;20043;-77
2023/05/30 14:23:42;;;;;;;3.22;1.10;;;;;;;;;;5070627;28;20047;-77
2023/05/30 14:26:08;;;;;;;2.78;1.75;;;;;;;;;;5073469;28;20086;-77
2023/05/30 14:28:35;;;;;;;2.10;1.10;;;;;;;;;;5072819;28;20044;-77
2023/05/30 14:31:01;;;;;;;3.72;1.10;;;;;;;;;;5075106;28;20587;-77
2023/05/30 14:33:27;;;;;;;3.97;1.38;;;;;;;;;;5072162;28;20139;-77
2023/05/30 14:35:53;;;;;;;1.08;0.88;;;;;;;;;;5070550;28;20055;-79
2023/05/30 14:38:20;;;;;;;1.65;0.80;;;;;;;;;;5071893;28;20040;-77